PORT of AGIOS KONSTANTINOS

Land: Greece Land: Greece (GR)
Latitude / Longitude: 38.758095° / 22.866425° Toon op kaart Toon op kaart
Lokale Tijd:  UTC +3
UN/LOCODE: GRAKO

Recente Aankomst- en Vertrektijden


Scheepsnaam
Aankomst (UTC)
Aankomst (LT)
Vertrek (UTC)
Vertrek (LT)
Vessel Type: Vissersboot  EFSTATHIOS 2014-09-26 21:38:00 2014-09-27 00:38:00 2014-09-26 21:52:00 2014-09-27 00:52:00
Vessel Type: Vissersboot  DIMITRA V 2014-09-26 13:30:00 2014-09-26 16:30:00 2014-09-26 16:04:00 2014-09-26 19:04:00
Vessel Type: Passagiersboot  OSIOS DAVID 2014-09-25 01:32:00 2014-09-25 04:32:00 2014-09-25 01:56:00 2014-09-25 04:56:00
Vessel Type: Passagiersboot  OSIOS DAVID 2014-09-24 09:23:00 2014-09-24 12:23:00 2014-09-24 11:50:00 2014-09-24 14:50:00
Vessel Type: HogeSnelheidsSchip  FLYING DOLPHIN ERATO 2014-09-21 15:05:00 2014-09-21 18:05:00 2014-09-21 15:52:00 2014-09-21 18:52:00
Vessel Type: HogeSnelheidsSchip  FLYING DOLPHIN ERATO 2014-09-19 16:51:00 2014-09-19 19:51:00 2014-09-19 17:28:00 2014-09-19 20:28:00
Vessel Type: HogeSnelheidsSchip  FLYING DOLPHIN ERATO 2014-09-12 16:05:00 2014-09-12 19:05:00 2014-09-12 16:42:00 2014-09-12 19:42:00
Vessel Type: Passagiersboot  OSIOS DAVID 2014-09-12 16:05:00 2014-09-12 19:05:00 2014-09-12 16:38:00 2014-09-12 19:38:00
Vessel Type: Passagiersboot  OSIOS DAVID 2014-09-12 14:08:00 2014-09-12 17:08:00 2014-09-12 14:38:00 2014-09-12 17:38:00
Vessel Type: Passagiersboot  OSIOS DAVID 2014-09-12 08:08:00 2014-09-12 11:08:00 2014-09-12 08:37:00 2014-09-12 11:37:00

Verwachte aankomsten


Scheepsnaam
Scheduled Arrival (UTC)
Geplande Aankomst (lokale tijd)
Geschatte Aankomsttijd (UTC)
Geschatte Aankomsttijd (Lokaal)
Geen gegevens gevonden

Wind Forecast


    
Tijd (UTC)
Snelheid
Direction
Temperature
2014-09-30 15:00:00 4 knots 70° 19°C
2014-09-30 18:00:00 1 knots 128° 20°C
2014-09-30 21:00:00 4 knots 259° 20°C
2014-10-01 00:00:00 4 knots 305° 20°C
2014-10-01 03:00:00 4 knots 333° 19°C
2014-10-01 06:00:00 4 knots 331° 19°C
2014-10-01 09:00:00 6 knots 39° 20°C
2014-10-01 12:00:00 7 knots 61° 20°C
2014-10-01 15:00:00 6 knots 66° 20°C
2014-10-01 18:00:00 2 knots 85° 20°C
2014-10-01 21:00:00 2 knots 329° 20°C
2014-10-02 00:00:00 4 knots 345° 20°C
2014-10-02 03:00:00 6 knots 346° 19°C
2014-10-02 06:00:00 10 knots 345° 18°C
2014-10-02 09:00:00 14 knots 26° 19°C
2014-10-02 12:00:00 15 knots 39° 20°C
2014-10-02 15:00:00 12 knots 34° 19°C